createdAt,value
2019-06-27T00:01:05.328Z,102222.52
2019-06-27T00:05:07.557Z,102218.56
2019-06-27T00:09:11.509Z,102222.12
2019-06-27T00:13:13.732Z,102218.17
2019-06-27T00:17:15.963Z,102218.17
2019-06-27T00:21:18.180Z,102215.15
2019-06-27T00:25:20.424Z,102212.13
2019-06-27T00:29:22.635Z,102214.22
2019-06-27T00:33:24.851Z,102223.97
2019-06-27T00:37:27.071Z,102210.66
2019-06-27T00:41:29.271Z,102211.20
2019-06-27T00:45:31.505Z,102215.15
2019-06-27T00:49:33.709Z,102209.09
2019-06-27T00:53:35.941Z,102213.44
2019-06-27T00:57:38.178Z,102210.02
2019-06-27T01:01:40.402Z,102210.02
2019-06-27T01:05:42.617Z,102210.80
2019-06-27T01:09:44.841Z,102212.13
2019-06-27T01:13:47.072Z,102217.00
2019-06-27T01:17:49.299Z,102215.15
2019-06-27T01:21:51.516Z,102212.66
2019-06-27T01:25:53.748Z,102217.00
2019-06-27T01:29:55.955Z,102209.09
2019-06-27T01:33:58.166Z,102220.55
2019-06-27T01:38:00.395Z,102217.92
2019-06-27T01:42:02.629Z,102213.05
2019-06-27T01:46:05.040Z,102208.70
2019-06-27T01:50:07.254Z,102210.02
2019-06-27T01:54:09.476Z,102209.09
2019-06-27T01:58:11.684Z,102210.02
2019-06-27T02:02:13.920Z,102207.38
2019-06-27T02:06:17.156Z,102201.59
2019-06-27T02:10:19.360Z,102204.22
2019-06-27T02:14:21.604Z,102206.85
2019-06-27T02:18:23.865Z,102211.73
2019-06-27T02:22:26.092Z,102203.05
2019-06-27T02:26:28.311Z,102210.41
2019-06-27T02:30:30.579Z,102209.09
2019-06-27T02:34:32.789Z,102210.41
2019-06-27T02:38:35.031Z,102217.39
2019-06-27T02:42:37.260Z,102211.73
2019-06-27T02:46:39.467Z,102214.75
2019-06-27T02:50:41.720Z,102208.56
2019-06-27T02:54:43.969Z,102206.85
2019-06-27T02:58:46.194Z,102216.07
2019-06-27T03:02:48.467Z,102209.87
2019-06-27T03:06:50.714Z,102210.80
2019-06-27T03:10:52.908Z,102206.85
2019-06-27T03:14:55.137Z,102205.54
2019-06-27T03:18:57.358Z,102189.59
2019-06-27T03:22:59.583Z,102211.20
2019-06-27T03:27:01.790Z,102210.27
2019-06-27T03:31:04.034Z,102198.42
2019-06-27T03:35:06.322Z,102194.47
2019-06-27T03:39:08.612Z,102208.95
2019-06-27T03:43:10.853Z,102202.77
2019-06-27T03:47:13.060Z,102211.59
2019-06-27T03:51:15.276Z,102205.40
2019-06-27T03:55:17.504Z,102207.64
2019-06-27T03:59:19.721Z,102209.34
2019-06-27T04:03:21.947Z,102214.62
2019-06-27T04:07:24.174Z,102209.34
2019-06-27T04:11:26.446Z,102211.45
2019-06-27T04:15:28.670Z,102204.47
2019-06-27T04:19:30.880Z,102205.79
2019-06-27T04:23:33.148Z,102209.34
2019-06-27T04:27:35.384Z,102202.77
2019-06-27T04:31:37.597Z,102202.98
2019-06-27T04:35:39.932Z,102207.11
2019-06-27T04:39:42.161Z,102191.70
2019-06-27T04:43:44.398Z,102194.33
2019-06-27T04:47:46.622Z,102203.69
2019-06-27T04:51:48.867Z,102196.57
2019-06-27T04:55:51.096Z,102204.47
2019-06-27T04:59:54.413Z,102205.00
2019-06-27T05:03:56.832Z,102199.73
2019-06-27T05:07:59.041Z,102206.72
2019-06-27T05:12:01.270Z,102193.73
2019-06-27T05:16:03.561Z,102197.41
2019-06-27T05:20:05.799Z,102198.08
2019-06-27T05:24:08.026Z,102195.98
2019-06-27T05:28:10.231Z,102196.12
2019-06-27T05:32:12.459Z,102197.83
2019-06-27T05:36:14.679Z,102198.11
2019-06-27T05:40:16.945Z,102194.16
2019-06-27T05:44:19.155Z,102201.13
2019-06-27T05:48:21.393Z,102195.34
2019-06-27T05:52:23.619Z,102199.81
2019-06-27T05:56:25.836Z,102193.23
2019-06-27T06:00:29.621Z,102204.16
2019-06-27T06:04:32.025Z,102207.19
2019-06-27T06:08:34.255Z,102205.47
2019-06-27T06:12:36.464Z,102202.31
2019-06-27T06:16:38.680Z,102207.58
2019-06-27T06:20:40.899Z,102204.41
2019-06-27T06:24:43.112Z,102219.17
2019-06-27T06:28:45.353Z,102217.72
2019-06-27T06:32:47.561Z,102211.13
2019-06-27T06:36:49.784Z,102221.98
2019-06-27T06:40:52.012Z,102222.27
2019-06-27T06:44:54.234Z,102216.94
2019-06-27T06:48:56.454Z,102217.86
2019-06-27T06:52:58.668Z,102220.35
2019-06-27T06:57:00.901Z,102231.81
2019-06-27T07:01:03.099Z,102229.96
2019-06-27T07:05:05.449Z,102246.69
2019-06-27T07:09:07.725Z,102242.73
2019-06-27T07:13:09.960Z,102245.77
2019-06-27T07:17:12.183Z,102236.55
2019-06-27T07:21:14.428Z,102241.28
2019-06-27T07:25:16.647Z,102244.84
2019-06-27T07:29:18.928Z,102248.39
2019-06-27T07:33:21.168Z,102253.66
2019-06-27T07:37:23.393Z,102257.08
2019-06-27T07:41:25.706Z,102258.40
2019-06-27T07:45:27.915Z,102256.55
2019-06-27T07:49:33.191Z,102259.58
2019-06-27T07:53:34.008Z,102258.79
2019-06-27T07:57:36.239Z,102260.25
2019-06-27T08:01:38.447Z,102268.55
2019-06-27T08:05:40.697Z,102273.41
2019-06-27T08:09:42.908Z,102269.86
2019-06-27T08:13:45.121Z,102266.69
2019-06-27T08:17:47.367Z,102274.20
2019-06-27T08:21:49.594Z,102264.98
2019-06-27T08:25:51.791Z,102283.70
2019-06-27T08:29:54.021Z,102277.90
2019-06-27T08:33:56.236Z,102277.51
2019-06-27T08:37:58.448Z,102272.23
2019-06-27T08:42:00.679Z,102283.95
2019-06-27T08:46:02.891Z,102276.19
2019-06-27T08:50:05.174Z,102274.48
2019-06-27T08:54:07.340Z,102266.58
2019-06-27T08:58:09.566Z,102270.70
2019-06-27T09:02:11.774Z,102276.51
2019-06-27T09:06:14.005Z,102270.53
2019-06-27T09:10:16.256Z,102278.22
2019-06-27T09:14:19.455Z,102272.95
2019-06-27T09:18:21.611Z,102269.00
2019-06-27T09:22:23.832Z,102271.24
2019-06-27T09:26:26.076Z,102277.83
2019-06-27T09:30:28.318Z,102270.31
2019-06-27T09:34:30.572Z,102276.72
2019-06-27T09:38:32.776Z,102271.45
2019-06-27T09:42:35.004Z,102275.98
2019-06-27T09:46:37.284Z,102265.44
2019-06-27T09:50:39.527Z,102278.22
2019-06-27T09:54:41.752Z,102294.95
2019-06-27T09:58:44.064Z,102292.70
2019-06-27T10:02:46.287Z,102285.34
2019-06-27T10:06:48.500Z,102283.63
2019-06-27T10:10:50.730Z,102285.48
2019-06-27T10:14:53.065Z,102288.50
2019-06-27T10:18:55.297Z,102274.94
2019-06-27T10:22:57.504Z,102279.67
2019-06-27T10:26:59.715Z,102288.89
2019-06-27T10:31:01.957Z,102278.50
2019-06-27T10:35:04.189Z,102278.89
2019-06-27T10:39:06.463Z,102287.33
2019-06-27T10:43:08.684Z,102290.35
2019-06-27T10:47:10.878Z,102287.19
2019-06-27T10:51:13.103Z,102285.87
2019-06-27T10:55:15.353Z,102282.84
2019-06-27T10:59:17.603Z,102284.16
2019-06-27T11:03:19.838Z,102282.84
2019-06-27T11:07:22.143Z,102274.02
2019-06-27T11:11:24.359Z,102283.38
2019-06-27T11:15:26.617Z,102277.04
2019-06-27T11:19:28.883Z,102270.59
2019-06-27T11:23:31.101Z,102269.28
2019-06-27T11:27:33.305Z,102272.84
2019-06-27T11:31:35.627Z,102273.63
2019-06-27T11:35:37.843Z,102272.31
2019-06-27T11:39:40.120Z,102273.63
2019-06-27T11:43:42.515Z,102277.58
2019-06-27T11:47:44.772Z,102274.02
2019-06-27T11:51:46.970Z,102263.87
2019-06-27T11:55:49.235Z,102270.59
2019-06-27T11:59:51.511Z,102274.94
2019-06-27T12:03:53.685Z,102271.92
2019-06-27T12:07:56.017Z,102274.55
2019-06-27T12:11:58.248Z,102273.63
2019-06-27T12:16:00.644Z,102274.02
2019-06-27T12:20:03.860Z,102272.84
2019-06-27T12:24:06.158Z,102270.20
2019-06-27T12:28:08.375Z,102278.11
2019-06-27T12:32:10.606Z,102266.65
2019-06-27T12:36:12.840Z,102267.57
2019-06-27T12:40:15.053Z,102272.84
2019-06-27T12:44:17.275Z,102272.06
2019-06-27T12:48:19.478Z,102263.09
2019-06-27T12:52:21.700Z,102266.79
2019-06-27T12:56:23.936Z,102265.86
2019-06-27T13:00:26.156Z,102249.13
2019-06-27T13:04:28.624Z,102247.81
2019-06-27T13:08:30.900Z,102244.80
2019-06-27T13:12:33.140Z,102247.42
2019-06-27T13:16:35.363Z,102251.91
2019-06-27T13:20:37.602Z,102244.94
2019-06-27T13:24:41.655Z,102239.41
2019-06-27T13:28:45.572Z,102234.92
2019-06-27T13:32:47.784Z,102234.92
2019-06-27T13:36:50.078Z,102240.20
2019-06-27T13:40:52.313Z,102239.80
2019-06-27T13:44:54.545Z,102232.69
2019-06-27T13:48:56.834Z,102233.36
2019-06-27T13:52:59.090Z,102232.97
2019-06-27T13:57:01.298Z,102222.03
2019-06-27T14:01:03.566Z,102226.52
2019-06-27T14:05:05.809Z,102217.16
2019-06-27T14:09:08.033Z,102214.53
2019-06-27T14:13:10.243Z,102217.48
2019-06-27T14:17:12.499Z,102212.34
2019-06-27T14:21:14.762Z,102206.37
2019-06-27T14:25:16.940Z,102209.79
2019-06-27T14:29:19.216Z,102214.53
2019-06-27T14:33:21.387Z,102216.09
2019-06-27T14:37:23.705Z,102216.63
2019-06-27T14:41:25.915Z,102219.41
2019-06-27T14:45:28.147Z,102215.06
2019-06-27T14:49:30.366Z,102207.02
2019-06-27T14:53:32.586Z,102212.42
2019-06-27T14:57:34.792Z,102209.79
2019-06-27T15:01:37.005Z,102212.03
2019-06-27T15:05:39.217Z,102208.47
2019-06-27T15:09:41.456Z,102200.04
2019-06-27T15:13:43.673Z,102204.91
2019-06-27T15:17:45.892Z,102207.30
2019-06-27T15:21:48.121Z,102204.52
2019-06-27T15:25:50.355Z,102210.33
2019-06-27T15:29:52.705Z,102217.08
2019-06-27T15:33:55.043Z,102211.56
2019-06-27T15:37:57.318Z,102212.15
2019-06-27T15:41:59.540Z,102212.87
2019-06-27T15:46:01.987Z,102223.28
2019-06-27T15:50:04.258Z,102210.89
2019-06-27T15:54:06.455Z,102211.03
2019-06-27T15:58:08.726Z,102223.95
2019-06-27T16:02:10.969Z,102220.13
2019-06-27T16:06:15.295Z,102209.20
2019-06-27T16:10:17.568Z,102213.69
2019-06-27T16:14:19.816Z,102210.97
2019-06-27T16:18:22.036Z,102207.94
2019-06-27T16:22:24.260Z,102198.25
2019-06-27T16:26:26.504Z,102204.32
2019-06-27T16:30:28.775Z,102200.11
2019-06-27T16:34:31.018Z,102199.59
2019-06-27T16:38:33.257Z,102201.96
2019-06-27T16:42:35.507Z,102205.62
2019-06-27T16:46:37.721Z,102197.20
2019-06-27T16:50:40.065Z,102198.84
2019-06-27T16:54:42.318Z,102204.30
2019-06-27T16:58:44.664Z,102206.02
2019-06-27T17:02:46.975Z,102206.55
2019-06-27T17:06:49.220Z,102205.84
2019-06-27T17:10:51.420Z,102213.41
2019-06-27T17:14:53.658Z,102203.37
2019-06-27T17:18:55.886Z,102203.94
2019-06-27T17:22:58.197Z,102207.22
2019-06-27T17:27:00.419Z,102205.56
2019-06-27T17:31:02.668Z,102201.59
2019-06-27T17:35:04.900Z,102204.16
2019-06-27T17:39:07.140Z,102207.38
2019-06-27T17:43:09.340Z,102201.59
2019-06-27T17:47:11.575Z,102205.84
2019-06-27T17:51:13.812Z,102208.36
2019-06-27T17:55:16.145Z,102204.16
2019-06-27T17:59:19.488Z,102207.48
2019-06-27T18:03:21.717Z,102207.88
2019-06-27T18:07:23.947Z,102204.71
2019-06-27T18:11:26.198Z,102205.89
2019-06-27T18:15:28.473Z,102206.81
2019-06-27T18:19:30.752Z,102201.30
2019-06-27T18:23:33.013Z,102207.03
2019-06-27T18:27:35.237Z,102214.43
2019-06-27T18:31:37.492Z,102219.27
2019-06-27T18:35:39.809Z,102221.41
2019-06-27T18:39:42.128Z,102221.41
2019-06-27T18:43:44.364Z,102231.16
2019-06-27T18:47:46.604Z,102233.92
2019-06-27T18:51:48.851Z,102232.12
2019-06-27T18:55:51.083Z,102241.66
2019-06-27T18:59:53.882Z,102247.06
2019-06-27T19:03:56.192Z,102252.92
2019-06-27T19:07:58.436Z,102258.69
2019-06-27T19:12:00.666Z,102262.09
2019-06-27T19:16:02.929Z,102256.16
2019-06-27T19:20:09.582Z,102259.57
2019-06-27T19:24:29.440Z,102268.70
2019-06-27T19:28:31.717Z,102273.11
2019-06-27T19:32:34.027Z,102266.32
2019-06-27T19:36:36.223Z,102262.97
2019-06-27T19:40:38.442Z,102259.03
2019-06-27T19:44:40.713Z,102262.58
2019-06-27T19:48:45.621Z,102268.09
2019-06-27T19:52:46.963Z,102272.43
2019-06-27T19:56:49.200Z,102265.23
2019-06-27T20:00:51.421Z,102268.23
2019-06-27T20:04:53.765Z,102270.11
2019-06-27T20:08:56.010Z,102272.73
2019-06-27T20:12:58.223Z,102274.01
2019-06-27T20:17:00.465Z,102273.72
2019-06-27T20:21:02.752Z,102281.55
2019-06-27T20:25:04.947Z,102277.31
2019-06-27T20:29:07.184Z,102288.22
2019-06-27T20:33:09.440Z,102293.70
2019-06-27T20:37:11.659Z,102291.09
2019-06-27T20:41:13.908Z,102294.72
2019-06-27T20:45:16.152Z,102297.98
2019-06-27T20:49:18.383Z,102303.32
2019-06-27T20:53:20.609Z,102298.74
2019-06-27T20:57:23.169Z,102308.11
2019-06-27T21:01:25.384Z,102306.41
2019-06-27T21:05:27.612Z,102312.11
2019-06-27T21:09:29.880Z,102316.49
2019-06-27T21:13:32.143Z,102309.23
2019-06-27T21:17:34.348Z,102310.64
2019-06-27T21:21:36.612Z,102306.17
2019-06-27T21:25:38.815Z,102311.72
2019-06-27T21:29:41.044Z,102308.66
2019-06-27T21:33:43.329Z,102308.66
2019-06-27T21:37:45.558Z,102302.67
2019-06-27T21:41:47.794Z,102307.64
2019-06-27T21:45:50.131Z,102307.25
2019-06-27T21:49:52.357Z,102308.86
2019-06-27T21:53:54.675Z,102308.56
2019-06-27T21:57:59.869Z,102305.01
2019-06-27T22:02:00.826Z,102301.98
2019-06-27T22:06:03.168Z,102300.53
2019-06-27T22:10:05.482Z,102296.20
2019-06-27T22:14:07.725Z,102293.81
2019-06-27T22:18:09.911Z,102293.66
2019-06-27T22:22:12.140Z,102291.90
2019-06-27T22:26:14.394Z,102292.83
2019-06-27T22:30:16.609Z,102293.27
2019-06-27T22:34:18.814Z,102302.71
2019-06-27T22:38:38.537Z,102299.84
2019-06-27T22:42:58.535Z,102298.37
2019-06-27T22:47:18.587Z,102299.94
2019-06-27T22:51:35.665Z,102301.25
2019-06-27T22:55:37.888Z,102295.45
2019-06-27T22:59:40.091Z,102295.94
2019-06-27T23:03:42.297Z,102288.97
2019-06-27T23:07:44.495Z,102289.18
2019-06-27T23:11:46.727Z,102285.62
2019-06-27T23:15:48.938Z,102291.81
2019-06-27T23:19:51.158Z,102287.03
2019-06-27T23:23:53.338Z,102284.10
2019-06-27T23:27:55.543Z,102283.63
2019-06-27T23:31:57.764Z,102291.06
2019-06-27T23:35:59.989Z,102291.51
2019-06-27T23:40:13.401Z,102291.75
2019-06-27T23:44:06.060Z,102297.93
2019-06-27T23:48:08.264Z,102306.89
2019-06-27T23:52:10.477Z,102293.90
2019-06-27T23:56:12.674Z,102284.41
